Time;durP1;ratioP1;P1;durP2;ratioP2;P2;SDS_P1;SDS_P2;PMS_P1;PMS_P2;Temp;Humidity;BMP_temperature;BMP_pressure;BME280_temperature;BME280_humidity;BME280_pressure;Samples;Min_cycle;Max_cycle;Signal;HPM_P1;HPM_P2
2022/04/04 00:08:59;;;;;;;2.83;1.00;;;4.00;99.90;;;;;;20789681;28;20096;-46
2022/04/04 00:19:00;;;;;;;4.13;1.45;;;4.10;99.90;;;;;;20804636;28;20559;-46
2022/04/04 00:29:01;;;;;;;5.10;1.23;;;4.00;99.90;;;;;;20810774;28;20049;-46
2022/04/04 00:39:03;;;;;;;5.85;1.95;;;3.90;99.90;;;;;;20806524;28;20140;-46
2022/04/04 00:49:05;;;;;;;5.57;1.67;;;4.00;99.90;;;;;;20805549;28;20041;-46
2022/04/04 00:59:12;;;;;;;6.68;2.22;;;3.90;99.90;;;;;;20801196;28;20056;-46
2022/04/04 01:09:14;;;;;;;4.82;2.03;;;4.00;99.90;;;;;;20798322;28;20393;-46
2022/04/04 01:19:15;;;;;;;4.55;2.10;;;4.00;99.90;;;;;;20801781;28;20050;-46
2022/04/04 01:29:18;;;;;;;3.35;1.58;;;4.00;99.90;;;;;;20802965;28;20129;-46
2022/04/04 01:39:19;;;;;;;7.10;1.98;;;4.10;99.90;;;;;;20799929;28;20052;-46
2022/04/04 01:49:20;;;;;;;6.78;2.60;;;4.20;99.90;;;;;;20791649;28;20042;-46
2022/04/04 01:59:22;;;;;;;5.18;1.73;;;4.40;99.90;;;;;;20793150;28;20041;-46
2022/04/04 02:09:24;;;;;;;5.20;2.08;;;4.40;99.90;;;;;;20790995;28;20370;-46
2022/04/04 02:19:25;;;;;;;6.25;3.08;;;4.60;99.90;;;;;;20792158;28;20054;-46
2022/04/04 02:29:26;;;;;;;6.95;3.20;;;4.50;99.90;;;;;;20795521;28;20037;-49
2022/04/04 02:39:27;;;;;;;7.18;3.67;;;4.60;99.90;;;;;;20798611;28;20053;-46
2022/04/04 02:49:31;;;;;;;7.93;3.28;;;4.70;99.90;;;;;;20796078;28;20045;-47
2022/04/04 02:59:32;;;;;;;10.38;3.45;;;4.80;99.90;;;;;;20795964;28;20049;-46
2022/04/04 03:09:33;;;;;;;6.63;2.78;;;5.00;99.90;;;;;;20793468;28;20392;-46
2022/04/04 03:19:35;;;;;;;5.70;2.83;;;5.00;99.90;;;;;;20793814;28;20049;-47
2022/04/04 03:29:36;;;;;;;6.88;3.22;;;5.10;99.90;;;;;;20796976;28;20061;-46
2022/04/04 03:39:37;;;;;;;6.38;3.17;;;5.10;99.90;;;;;;20778452;28;20065;-46
2022/04/04 03:49:39;;;;;;;10.45;2.88;;;5.30;99.90;;;;;;20804343;28;20515;-46
2022/04/04 03:59:40;;;;;;;7.60;2.00;;;5.30;99.90;;;;;;20800876;28;20045;-46
2022/04/04 04:09:43;;;;;;;8.73;3.17;;;5.30;99.90;;;;;;20806323;28;20128;-46
2022/04/04 04:30:05;;;;;;;7.03;2.90;;;5.40;99.90;;;;;;20803097;28;20230;-46
2022/04/04 04:40:08;;;;;;;9.18;3.10;;;5.40;99.90;;;;;;20805808;28;20393;-46
2022/04/04 04:50:10;;;;;;;5.78;2.78;;;5.50;99.90;;;;;;20778839;28;20149;-49
2022/04/04 05:00:15;;;;;;;3.90;2.20;;;5.60;99.90;;;;;;20804644;28;20046;-46
2022/04/04 05:10:17;;;;;;;5.75;2.30;;;5.60;99.90;;;;;;20805315;28;20079;-46
2022/04/04 05:20:19;;;;;;;7.53;2.80;;;5.80;99.90;;;;;;20802926;28;20041;-46
2022/04/04 05:30:20;;;;;;;6.10;2.85;;;5.80;99.90;;;;;;20805853;28;20056;-48
2022/04/04 05:40:24;;;;;;;6.45;2.15;;;5.90;99.90;;;;;;20807252;28;20042;-52
2022/04/04 05:50:25;;;;;;;6.78;2.22;;;6.10;99.90;;;;;;20803987;28;20048;-47
2022/04/04 06:00:27;;;;;;;7.63;2.75;;;6.00;99.90;;;;;;20805832;28;20041;-46
2022/04/04 06:10:28;;;;;;;7.20;2.08;;;6.10;99.90;;;;;;20804174;28;20472;-46
2022/04/04 06:20:29;;;;;;;7.25;2.90;;;6.30;99.90;;;;;;20802745;28;20042;-47
2022/04/04 06:30:32;;;;;;;7.25;2.85;;;6.30;99.90;;;;;;20805456;28;20049;-47
2022/04/04 06:40:33;;;;;;;10.93;2.80;;;6.40;99.90;;;;;;20794654;28;20056;-47
2022/04/04 06:50:34;;;;;;;6.57;3.63;;;6.40;99.90;;;;;;20800455;28;20128;-47
2022/04/04 07:00:35;;;;;;;7.90;3.28;;;6.30;99.90;;;;;;20807210;28;20045;-47
2022/04/04 07:10:37;;;;;;;14.52;3.63;;;6.10;99.90;;;;;;20816876;28;20041;-47
2022/04/04 07:20:38;;;;;;;6.63;2.50;;;6.10;99.90;;;;;;20819712;28;20049;-46
2022/04/04 07:30:39;;;;;;;5.25;2.67;;;6.20;99.90;;;;;;20816580;28;20042;-47
2022/04/04 07:40:41;;;;;;;5.78;2.50;;;6.20;99.90;;;;;;20819148;28;20060;-46
2022/04/04 07:50:44;;;;;;;6.45;2.08;;;6.30;99.90;;;;;;20823163;28;20480;-48
2022/04/04 08:00:45;;;;;;;2.75;1.40;;;6.30;99.90;;;;;;20818785;28;20037;-47
2022/04/04 08:10:46;;;;;;;3.30;1.38;;;6.20;99.90;;;;;;20816771;28;20042;-47
2022/04/04 08:20:47;;;;;;;3.42;1.63;;;6.10;99.90;;;;;;20818397;28;20041;-47
2022/04/04 08:30:50;;;;;;;5.03;2.95;;;6.10;99.90;;;;;;20795371;28;20041;-47
2022/04/04 08:40:51;;;;;;;5.22;2.30;;;6.00;99.90;;;;;;20811874;28;20523;-46
2022/04/04 08:50:52;;;;;;;4.63;1.70;;;5.90;99.90;;;;;;20820624;28;20085;-47
2022/04/04 09:00:54;;;;;;;6.53;2.70;;;5.90;99.90;;;;;;20828009;28;20221;-47
2022/04/04 09:11:00;;;;;;;5.07;2.55;;;6.00;99.90;;;;;;20821567;28;20712;-46
2022/04/04 09:21:03;;;;;;;4.13;1.87;;;6.00;99.90;;;;;;20814167;28;20057;-46
2022/04/04 09:31:09;;;;;;;6.50;1.98;;;6.10;99.90;;;;;;20787328;28;20037;-46
2022/04/04 09:41:17;;;;;;;8.68;2.35;;;6.30;99.90;;;;;;20805255;28;20052;-45
2022/04/04 09:51:45;;;;;;;2.90;1.50;;;6.40;99.90;;;;;;20798730;28;20041;-45
2022/04/04 10:01:47;;;;;;;7.28;1.00;;;6.50;99.90;;;;;;20796975;28;20038;-45
2022/04/04 10:11:48;;;;;;;2.67;1.15;;;6.60;99.90;;;;;;20803053;28;20061;-45
2022/04/04 10:21:49;;;;;;;2.42;1.05;;;6.70;99.90;;;;;;20805316;28;20037;-46
2022/04/04 10:31:53;;;;;;;3.22;1.33;;;6.70;99.90;;;;;;20816136;28;20308;-45
2022/04/04 10:41:56;;;;;;;2.97;1.17;;;6.80;99.90;;;;;;20812610;28;20044;-45
2022/04/04 10:51:57;;;;;;;4.20;0.98;;;6.80;99.90;;;;;;20798775;28;20048;-45
2022/04/04 11:02:01;;;;;;;4.70;0.93;;;7.00;99.90;;;;;;20802316;28;20041;-45
2022/04/04 11:12:08;;;;;;;2.90;1.27;;;7.00;99.90;;;;;;20797220;28;20045;-45
2022/04/04 11:22:10;;;;;;;;;;;7.10;99.90;;;;;;20791495;28;21006;-46
2022/04/04 11:32:15;;;;;;;2.10;1.20;;;7.20;99.90;;;;;;20793442;28;19917;-45
2022/04/04 11:42:16;;;;;;;2.80;1.20;;;7.40;99.90;;;;;;20793809;28;20053;-45
2022/04/04 11:52:19;;;;;;;1.67;0.75;;;7.40;99.90;;;;;;20791187;28;20052;-45
2022/04/04 12:02:23;;;;;;;1.98;0.80;;;7.50;99.90;;;;;;20782228;28;20397;-45
2022/04/04 12:12:29;;;;;;;1.40;0.68;;;7.60;99.90;;;;;;20804147;28;20045;-45
2022/04/04 12:32:53;;;;;;;1.05;0.47;;;7.80;99.90;;;;;;20795299;28;20480;-45
2022/04/04 12:43:05;;;;;;;1.05;0.40;;;7.90;99.90;;;;;;20793849;28;20045;-45
2022/04/04 12:53:08;;;;;;;0.50;0.22;;;7.90;99.90;;;;;;20795680;28;20052;-45
2022/04/04 13:03:42;;;;;;;1.13;0.55;;;8.00;99.90;;;;;;20797450;28;21384;-46
2022/04/04 13:14:05;;;;;;;1.90;0.80;;;8.10;99.90;;;;;;20794470;28;20037;-45
2022/04/04 13:24:07;;;;;;;1.33;0.52;;;8.20;99.90;;;;;;20762834;28;20409;-45
2022/04/04 13:34:08;;;;;;;2.38;0.80;;;8.20;99.90;;;;;;20767910;28;21065;-45
2022/04/04 13:44:10;;;;;;;2.22;1.15;;;8.20;99.90;;;;;;20763713;28;20555;-45
2022/04/04 13:54:11;;;;;;;2.40;1.52;;;8.30;99.90;;;;;;20799507;28;20621;-45
2022/04/04 14:04:12;;;;;;;3.78;1.63;;;8.30;99.90;;;;;;20786199;28;20060;-45
2022/04/04 14:14:13;;;;;;;7.38;2.65;;;8.50;99.90;;;;;;20801328;28;20462;-45
2022/04/04 14:24:15;;;;;;;7.82;3.97;;;8.60;99.90;;;;;;20801411;28;20049;-45
2022/04/04 14:34:19;;;;;;;7.82;2.97;;;8.70;99.90;;;;;;20802569;28;21367;-45
2022/04/04 14:44:20;;;;;;;9.00;3.03;;;8.70;99.90;;;;;;20796066;28;20052;-46
2022/04/04 14:54:21;;;;;;;12.63;2.83;;;8.80;99.90;;;;;;20799792;28;20047;-45
2022/04/04 15:04:24;;;;;;;5.35;2.35;;;9.00;99.90;;;;;;20806082;28;20065;-45
2022/04/04 15:14:25;;;;;;;11.60;2.63;;;9.10;99.90;;;;;;20798987;28;20038;-45
2022/04/04 15:24:27;;;;;;;4.90;2.15;;;9.20;99.90;;;;;;20793793;28;20121;-45
2022/04/04 15:34:28;;;;;;;6.97;2.75;;;9.30;99.90;;;;;;20803886;28;20053;-46
2022/04/04 15:44:31;;;;;;;10.10;2.95;;;9.40;99.90;;;;;;20806320;28;20057;-45
2022/04/04 15:54:34;;;;;;;6.60;2.78;;;9.50;99.90;;;;;;20796875;28;20049;-45
2022/04/04 16:04:35;;;;;;;6.55;2.33;;;9.70;99.90;;;;;;20797228;28;20049;-45
2022/04/04 16:14:36;;;;;;;6.00;2.78;;;9.70;99.90;;;;;;20804421;28;20030;-46
2022/04/04 16:24:38;;;;;;;9.80;3.03;;;9.60;99.90;;;;;;20802914;28;20037;-46
2022/04/04 16:34:39;;;;;;;7.75;2.90;;;9.70;99.90;;;;;;20811503;28;20049;-45
2022/04/04 16:44:40;;;;;;;12.80;2.60;;;9.80;99.90;;;;;;20810054;28;20124;-45
2022/04/04 16:54:41;;;;;;;8.15;2.83;;;9.90;99.90;;;;;;20791028;28;20397;-46
2022/04/04 17:04:42;;;;;;;4.82;2.63;;;9.90;99.90;;;;;;20779540;28;20049;-45
2022/04/04 17:14:43;;;;;;;5.82;2.38;;;9.90;99.90;;;;;;20766750;28;20089;-45
2022/04/04 17:24:44;;;;;;;4.93;2.42;;;10.00;99.90;;;;;;20762861;28;20041;-45
2022/04/04 17:34:45;;;;;;;5.45;2.58;;;9.90;99.90;;;;;;20763435;28;20401;-45
2022/04/04 17:44:46;;;;;;;7.00;2.58;;;10.00;99.90;;;;;;20770541;28;20052;-44
2022/04/04 17:54:48;;;;;;;7.22;2.42;;;10.10;99.90;;;;;;20714083;28;20404;-44
2022/04/04 18:04:49;;;;;;;8.93;2.30;;;10.10;99.90;;;;;;20764223;28;20053;-45
2022/04/04 18:14:50;;;;;;;8.63;2.88;;;10.00;99.90;;;;;;20758133;28;20042;-45
2022/04/04 18:24:51;;;;;;;7.90;3.40;;;10.10;99.90;;;;;;20752623;28;20049;-44
2022/04/04 18:34:53;;;;;;;7.40;2.80;;;10.20;99.90;;;;;;20754419;28;20130;-45
2022/04/04 18:44:54;;;;;;;10.95;3.22;;;10.20;99.90;;;;;;20775055;28;20057;-45
2022/04/04 18:54:57;;;;;;;9.57;3.15;;;10.20;99.90;;;;;;20771623;28;20033;-45
2022/04/04 19:04:58;;;;;;;7.70;3.38;;;10.20;99.90;;;;;;20772599;28;20046;-45
2022/04/04 19:14:59;;;;;;;7.78;3.50;;;10.20;99.90;;;;;;20761889;28;20179;-45
2022/04/04 19:25:01;;;;;;;6.55;2.95;;;10.30;99.90;;;;;;20771885;28;20050;-45
2022/04/04 19:35:03;;;;;;;5.68;3.40;;;10.30;99.90;;;;;;20764392;28;20053;-46
2022/04/04 19:45:05;;;;;;;7.60;3.47;;;10.30;99.90;;;;;;20757993;28;20479;-46
2022/04/04 19:55:06;;;;;;;9.30;3.38;;;10.40;99.90;;;;;;20775739;28;20045;-45
2022/04/04 20:05:11;;;;;;;10.05;3.25;;;10.40;99.90;;;;;;20769205;28;20060;-46
2022/04/04 20:15:13;;;;;;;20.60;4.00;;;10.30;99.90;;;;;;20777000;28;20038;-45
2022/04/04 20:25:14;;;;;;;8.40;3.03;;;10.30;99.90;;;;;;20780173;28;20570;-46
2022/04/04 20:35:16;;;;;;;7.50;2.80;;;10.50;99.90;;;;;;20770273;28;20053;-46
2022/04/04 20:45:17;;;;;;;9.35;2.97;;;10.50;99.90;;;;;;20755460;28;20428;-46
2022/04/04 20:55:18;;;;;;;7.00;2.65;;;10.70;99.90;;;;;;20759296;28;20057;-46
2022/04/04 21:05:19;;;;;;;6.50;2.88;;;10.70;99.90;;;;;;20756410;28;20041;-45
2022/04/04 21:15:20;;;;;;;8.48;2.80;;;10.80;99.90;;;;;;20758138;28;20041;-45
2022/04/04 21:25:21;;;;;;;6.05;2.35;;;10.90;99.90;;;;;;20755605;28;20501;-45
2022/04/04 21:35:22;;;;;;;4.65;2.50;;;10.90;99.90;;;;;;20756420;28;20823;-46
2022/04/04 21:45:23;;;;;;;4.70;1.88;;;10.90;99.90;;;;;;20755245;28;20476;-45
2022/04/04 21:55:24;;;;;;;7.25;2.20;;;10.80;99.90;;;;;;20757084;28;20044;-45
2022/04/04 22:05:25;;;;;;;8.90;2.35;;;10.70;99.90;;;;;;20757367;28;20053;-45
2022/04/04 22:15:26;;;;;;;7.68;2.65;;;10.60;99.90;;;;;;20757469;28;20497;-46
2022/04/04 22:25:28;;;;;;;4.43;2.25;;;10.60;99.90;;;;;;20756862;28;20054;-45
2022/04/04 22:35:29;;;;;;;13.02;1.90;;;10.60;99.90;;;;;;20761801;28;20229;-45
2022/04/04 22:45:30;;;;;;;3.88;1.55;;;10.50;99.90;;;;;;20760960;28;20441;-45
2022/04/04 22:55:32;;;;;;;5.43;1.73;;;10.40;99.90;;;;;;20750160;28;20045;-45
2022/04/04 23:05:33;;;;;;;3.63;1.25;;;10.30;99.90;;;;;;20753593;28;20520;-45
2022/04/04 23:15:34;;;;;;;5.78;1.25;;;10.20;99.90;;;;;;20752871;28;20034;-45
2022/04/04 23:25:35;;;;;;;5.43;2.20;;;10.20;99.90;;;;;;20760339;28;20041;-45
2022/04/04 23:35:36;;;;;;;10.30;2.45;;;10.20;99.90;;;;;;20752166;28;20050;-45
2022/04/04 23:45:37;;;;;;;6.45;3.22;;;10.20;99.90;;;;;;20749987;28;20246;-45
2022/04/04 23:55:38;;;;;;;3.80;1.92;;;10.10;99.90;;;;;;20769444;28;20053;-46
